sensor_id;sensor_type;location;lat;lon;timestamp;temperature;humidity
23137;DHT22;11737;50.558;7.258;2023-03-01T00:02:02;-0.60;99.90
23137;DHT22;11737;50.558;7.258;2023-03-01T00:04:31;-0.60;99.90
23137;DHT22;11737;50.558;7.258;2023-03-01T00:06:58;-0.70;99.90
23137;DHT22;11737;50.558;7.258;2023-03-01T00:09:26;-0.60;99.90
23137;DHT22;11737;50.558;7.258;2023-03-01T00:11:53;-0.50;99.90
23137;DHT22;11737;50.558;7.258;2023-03-01T00:14:21;-0.30;99.90
23137;DHT22;11737;50.558;7.258;2023-03-01T00:16:48;-0.10;99.90
23137;DHT22;11737;50.558;7.258;2023-03-01T00:19:17;0.00;99.90
23137;DHT22;11737;50.558;7.258;2023-03-01T00:21:46;0.00;99.90
23137;DHT22;11737;50.558;7.258;2023-03-01T00:24:14;-0.20;99.90
23137;DHT22;11737;50.558;7.258;2023-03-01T00:26:42;-0.30;99.90
23137;DHT22;11737;50.558;7.258;2023-03-01T00:29:09;-0.30;99.90
23137;DHT22;11737;50.558;7.258;2023-03-01T00:31:37;-0.30;99.90
23137;DHT22;11737;50.558;7.258;2023-03-01T00:36:52;-0.60;99.90
23137;DHT22;11737;50.558;7.258;2023-03-01T00:39:20;-0.60;99.90
23137;DHT22;11737;50.558;7.258;2023-03-01T00:41:47;-0.70;99.90
23137;DHT22;11737;50.558;7.258;2023-03-01T00:44:15;-0.70;99.90
23137;DHT22;11737;50.558;7.258;2023-03-01T00:46:43;-0.70;99.90
23137;DHT22;11737;50.558;7.258;2023-03-01T00:49:11;-0.80;99.90
23137;DHT22;11737;50.558;7.258;2023-03-01T00:51:38;-0.80;99.90
23137;DHT22;11737;50.558;7.258;2023-03-01T00:54:08;-0.90;99.90
23137;DHT22;11737;50.558;7.258;2023-03-01T00:56:36;-0.80;99.90
23137;DHT22;11737;50.558;7.258;2023-03-01T00:59:03;-0.70;99.90
23137;DHT22;11737;50.558;7.258;2023-03-01T01:01:31;-0.60;99.90
23137;DHT22;11737;50.558;7.258;2023-03-01T01:04:05;-0.60;99.90
23137;DHT22;11737;50.558;7.258;2023-03-01T01:06:32;-0.70;99.90
23137;DHT22;11737;50.558;7.258;2023-03-01T01:09:00;-0.90;99.90
23137;DHT22;11737;50.558;7.258;2023-03-01T01:11:29;-1.00;99.90
23137;DHT22;11737;50.558;7.258;2023-03-01T01:13:58;-1.10;99.90
23137;DHT22;11737;50.558;7.258;2023-03-01T01:16:27;-1.20;99.90
23137;DHT22;11737;50.558;7.258;2023-03-01T01:18:56;-1.20;99.90
23137;DHT22;11737;50.558;7.258;2023-03-01T01:21:25;-1.30;99.90
23137;DHT22;11737;50.558;7.258;2023-03-01T01:23:52;-1.30;99.90
23137;DHT22;11737;50.558;7.258;2023-03-01T01:26:22;-1.30;99.90
23137;DHT22;11737;50.558;7.258;2023-03-01T01:28:51;-1.20;99.90
23137;DHT22;11737;50.558;7.258;2023-03-01T01:31:20;-1.10;99.90
23137;DHT22;11737;50.558;7.258;2023-03-01T01:36:38;-1.40;99.90
23137;DHT22;11737;50.558;7.258;2023-03-01T01:39:06;-1.50;99.90
23137;DHT22;11737;50.558;7.258;2023-03-01T01:41:33;-1.50;99.90
23137;DHT22;11737;50.558;7.258;2023-03-01T01:44:26;-1.50;99.90
23137;DHT22;11737;50.558;7.258;2023-03-01T01:49:51;-1.60;99.90
23137;DHT22;11737;50.558;7.258;2023-03-01T01:55:25;-1.70;99.90
23137;DHT22;11737;50.558;7.258;2023-03-01T01:57:52;-1.70;99.90
23137;DHT22;11737;50.558;7.258;2023-03-01T02:00:23;-1.70;99.90
23137;DHT22;11737;50.558;7.258;2023-03-01T02:02:56;-1.80;99.90
23137;DHT22;11737;50.558;7.258;2023-03-01T02:08:24;-1.70;99.90
23137;DHT22;11737;50.558;7.258;2023-03-01T02:10:53;-1.70;99.90
23137;DHT22;11737;50.558;7.258;2023-03-01T02:13:23;-1.70;99.90
23137;DHT22;11737;50.558;7.258;2023-03-01T02:15:50;-1.70;99.90
23137;DHT22;11737;50.558;7.258;2023-03-01T02:18:20;-1.70;99.90
23137;DHT22;11737;50.558;7.258;2023-03-01T02:21:05;-1.70;99.90
23137;DHT22;11737;50.558;7.258;2023-03-01T02:23:50;-1.60;99.90
23137;DHT22;11737;50.558;7.258;2023-03-01T02:28:53;-1.60;99.90
23137;DHT22;11737;50.558;7.258;2023-03-01T02:31:21;-1.60;99.90
23137;DHT22;11737;50.558;7.258;2023-03-01T02:34:08;-1.40;99.90
23137;DHT22;11737;50.558;7.258;2023-03-01T02:36:51;-1.50;99.90
23137;DHT22;11737;50.558;7.258;2023-03-01T02:39:22;-1.50;99.90
23137;DHT22;11737;50.558;7.258;2023-03-01T02:41:51;-1.60;99.90
23137;DHT22;11737;50.558;7.258;2023-03-01T02:44:20;-1.50;99.90
23137;DHT22;11737;50.558;7.258;2023-03-01T02:46:51;-1.50;99.90
23137;DHT22;11737;50.558;7.258;2023-03-01T02:49:29;-1.60;99.90
23137;DHT22;11737;50.558;7.258;2023-03-01T02:54:46;-1.80;99.90
23137;DHT22;11737;50.558;7.258;2023-03-01T02:57:14;-1.90;99.90
23137;DHT22;11737;50.558;7.258;2023-03-01T02:59:43;-1.90;99.90
23137;DHT22;11737;50.558;7.258;2023-03-01T03:02:29;-2.00;99.90
23137;DHT22;11737;50.558;7.258;2023-03-01T03:05:08;-2.10;99.90
23137;DHT22;11737;50.558;7.258;2023-03-01T03:07:39;-2.20;99.90
23137;DHT22;11737;50.558;7.258;2023-03-01T03:10:10;-2.10;99.90
23137;DHT22;11737;50.558;7.258;2023-03-01T03:12:38;-2.10;99.90
23137;DHT22;11737;50.558;7.258;2023-03-01T03:15:07;-2.10;99.90
23137;DHT22;11737;50.558;7.258;2023-03-01T03:17:37;-2.20;99.90
23137;DHT22;11737;50.558;7.258;2023-03-01T03:20:06;-2.20;99.90
23137;DHT22;11737;50.558;7.258;2023-03-01T03:22:36;-2.00;99.90
23137;DHT22;11737;50.558;7.258;2023-03-01T03:25:04;-1.70;99.90
23137;DHT22;11737;50.558;7.258;2023-03-01T03:27:34;-1.70;99.90
23137;DHT22;11737;50.558;7.258;2023-03-01T03:30:01;-1.70;99.90
23137;DHT22;11737;50.558;7.258;2023-03-01T03:32:30;-1.80;99.90
23137;DHT22;11737;50.558;7.258;2023-03-01T03:34:58;-1.90;99.90
23137;DHT22;11737;50.558;7.258;2023-03-01T03:37:25;-2.00;99.90
23137;DHT22;11737;50.558;7.258;2023-03-01T03:40:11;-2.10;99.90
23137;DHT22;11737;50.558;7.258;2023-03-01T03:42:41;-2.00;99.90
23137;DHT22;11737;50.558;7.258;2023-03-01T03:45:09;-2.10;99.90
23137;DHT22;11737;50.558;7.258;2023-03-01T03:47:36;-2.10;99.90
23137;DHT22;11737;50.558;7.258;2023-03-01T03:50:04;-2.00;99.90
23137;DHT22;11737;50.558;7.258;2023-03-01T03:52:31;-2.00;99.90
23137;DHT22;11737;50.558;7.258;2023-03-01T03:54:59;-1.90;99.90
23137;DHT22;11737;50.558;7.258;2023-03-01T03:57:26;-2.00;99.90
23137;DHT22;11737;50.558;7.258;2023-03-01T03:59:54;-2.00;99.90
23137;DHT22;11737;50.558;7.258;2023-03-01T04:02:21;-2.00;99.90
23137;DHT22;11737;50.558;7.258;2023-03-01T04:04:49;-2.00;99.90
23137;DHT22;11737;50.558;7.258;2023-03-01T04:07:17;-1.90;99.90
23137;DHT22;11737;50.558;7.258;2023-03-01T04:09:45;-1.90;99.90
23137;DHT22;11737;50.558;7.258;2023-03-01T04:12:12;-2.00;99.90
23137;DHT22;11737;50.558;7.258;2023-03-01T04:14:40;-1.90;99.90
23137;DHT22;11737;50.558;7.258;2023-03-01T04:17:07;-1.80;99.90
23137;DHT22;11737;50.558;7.258;2023-03-01T04:19:35;-1.70;99.90
23137;DHT22;11737;50.558;7.258;2023-03-01T04:22:03;-1.70;99.90
23137;DHT22;11737;50.558;7.258;2023-03-01T04:24:32;-1.70;99.90
23137;DHT22;11737;50.558;7.258;2023-03-01T04:27:00;-1.90;99.90
23137;DHT22;11737;50.558;7.258;2023-03-01T04:29:28;-2.00;99.90
23137;DHT22;11737;50.558;7.258;2023-03-01T04:31:55;-2.20;99.90
23137;DHT22;11737;50.558;7.258;2023-03-01T04:34:23;-2.30;99.90
23137;DHT22;11737;50.558;7.258;2023-03-01T04:36:52;-2.20;99.90
23137;DHT22;11737;50.558;7.258;2023-03-01T04:39:20;-2.30;99.90
23137;DHT22;11737;50.558;7.258;2023-03-01T04:41:47;-2.50;99.90
23137;DHT22;11737;50.558;7.258;2023-03-01T04:44:14;-2.60;99.90
23137;DHT22;11737;50.558;7.258;2023-03-01T04:46:42;-2.60;99.90
23137;DHT22;11737;50.558;7.258;2023-03-01T04:49:09;-2.70;99.90
23137;DHT22;11737;50.558;7.258;2023-03-01T04:51:37;-2.60;99.90
23137;DHT22;11737;50.558;7.258;2023-03-01T04:54:04;-2.40;99.90
23137;DHT22;11737;50.558;7.258;2023-03-01T04:56:34;-2.40;99.90
23137;DHT22;11737;50.558;7.258;2023-03-01T04:59:01;-2.40;99.90
23137;DHT22;11737;50.558;7.258;2023-03-01T05:01:30;-2.50;99.90
23137;DHT22;11737;50.558;7.258;2023-03-01T05:03:58;-2.50;99.90
23137;DHT22;11737;50.558;7.258;2023-03-01T05:06:27;-2.60;99.90
23137;DHT22;11737;50.558;7.258;2023-03-01T05:09:14;-2.60;99.90
23137;DHT22;11737;50.558;7.258;2023-03-01T05:11:42;-2.70;99.90
23137;DHT22;11737;50.558;7.258;2023-03-01T05:14:10;-2.70;99.90
23137;DHT22;11737;50.558;7.258;2023-03-01T05:16:38;-2.70;99.90
23137;DHT22;11737;50.558;7.258;2023-03-01T05:19:05;-2.70;99.90
23137;DHT22;11737;50.558;7.258;2023-03-01T05:21:34;-2.70;99.90
23137;DHT22;11737;50.558;7.258;2023-03-01T05:24:04;-2.70;99.90
23137;DHT22;11737;50.558;7.258;2023-03-01T05:26:31;-2.60;99.90
23137;DHT22;11737;50.558;7.258;2023-03-01T05:28:59;-2.60;99.90
23137;DHT22;11737;50.558;7.258;2023-03-01T05:31:27;-2.70;99.90
23137;DHT22;11737;50.558;7.258;2023-03-01T05:33:57;-2.70;99.90
23137;DHT22;11737;50.558;7.258;2023-03-01T05:36:24;-2.70;99.90
23137;DHT22;11737;50.558;7.258;2023-03-01T05:38:52;-2.70;99.90
23137;DHT22;11737;50.558;7.258;2023-03-01T05:41:19;-2.80;99.90
23137;DHT22;11737;50.558;7.258;2023-03-01T05:43:47;-2.90;99.90
23137;DHT22;11737;50.558;7.258;2023-03-01T05:46:14;-2.90;99.90
23137;DHT22;11737;50.558;7.258;2023-03-01T05:48:42;-2.90;99.90
23137;DHT22;11737;50.558;7.258;2023-03-01T05:51:10;-2.90;99.90
23137;DHT22;11737;50.558;7.258;2023-03-01T05:53:38;-2.90;99.90
23137;DHT22;11737;50.558;7.258;2023-03-01T05:56:06;-3.00;99.90
23137;DHT22;11737;50.558;7.258;2023-03-01T05:58:33;-2.80;99.90
23137;DHT22;11737;50.558;7.258;2023-03-01T06:01:01;-2.80;99.90
23137;DHT22;11737;50.558;7.258;2023-03-01T06:03:28;-2.80;99.90
23137;DHT22;11737;50.558;7.258;2023-03-01T06:05:57;-2.80;99.90
23137;DHT22;11737;50.558;7.258;2023-03-01T06:08:25;-2.80;99.90
23137;DHT22;11737;50.558;7.258;2023-03-01T06:10:53;-3.00;99.90
23137;DHT22;11737;50.558;7.258;2023-03-01T06:13:21;-3.00;99.90
23137;DHT22;11737;50.558;7.258;2023-03-01T06:15:49;-3.00;99.90
23137;DHT22;11737;50.558;7.258;2023-03-01T06:18:17;-3.10;99.90
23137;DHT22;11737;50.558;7.258;2023-03-01T06:20:44;-3.10;99.90
23137;DHT22;11737;50.558;7.258;2023-03-01T06:23:12;-3.00;99.90
23137;DHT22;11737;50.558;7.258;2023-03-01T06:25:39;-3.00;99.90
23137;DHT22;11737;50.558;7.258;2023-03-01T06:28:07;-3.10;99.90
23137;DHT22;11737;50.558;7.258;2023-03-01T06:30:34;-3.20;99.90
23137;DHT22;11737;50.558;7.258;2023-03-01T06:33:02;-3.20;99.90
23137;DHT22;11737;50.558;7.258;2023-03-01T06:35:30;-3.20;99.90
23137;DHT22;11737;50.558;7.258;2023-03-01T06:37:59;-3.10;99.90
23137;DHT22;11737;50.558;7.258;2023-03-01T06:40:27;-3.10;99.90
23137;DHT22;11737;50.558;7.258;2023-03-01T06:42:55;-3.10;99.90
23137;DHT22;11737;50.558;7.258;2023-03-01T06:45:23;-3.10;99.90
23137;DHT22;11737;50.558;7.258;2023-03-01T06:47:51;-3.20;99.90
23137;DHT22;11737;50.558;7.258;2023-03-01T06:50:18;-3.10;99.90
23137;DHT22;11737;50.558;7.258;2023-03-01T06:52:46;-2.80;99.90
23137;DHT22;11737;50.558;7.258;2023-03-01T06:55:14;-2.60;99.90
23137;DHT22;11737;50.558;7.258;2023-03-01T06:57:42;-2.60;99.90
23137;DHT22;11737;50.558;7.258;2023-03-01T07:00:10;-2.70;99.90
23137;DHT22;11737;50.558;7.258;2023-03-01T07:02:38;-2.60;99.90
23137;DHT22;11737;50.558;7.258;2023-03-01T07:05:06;-2.50;99.90
23137;DHT22;11737;50.558;7.258;2023-03-01T07:07:33;-2.40;99.90
23137;DHT22;11737;50.558;7.258;2023-03-01T07:10:01;-2.50;99.90
23137;DHT22;11737;50.558;7.258;2023-03-01T07:12:28;-2.70;99.90
23137;DHT22;11737;50.558;7.258;2023-03-01T07:14:56;-2.70;99.90
23137;DHT22;11737;50.558;7.258;2023-03-01T07:17:23;-2.60;99.90
23137;DHT22;11737;50.558;7.258;2023-03-01T07:19:51;-2.60;99.90
23137;DHT22;11737;50.558;7.258;2023-03-01T07:22:18;-2.50;99.90
23137;DHT22;11737;50.558;7.258;2023-03-01T07:24:46;-2.50;99.90
23137;DHT22;11737;50.558;7.258;2023-03-01T07:27:13;-2.40;99.90
23137;DHT22;11737;50.558;7.258;2023-03-01T07:29:41;-2.40;99.90
23137;DHT22;11737;50.558;7.258;2023-03-01T07:32:08;-2.30;99.90
23137;DHT22;11737;50.558;7.258;2023-03-01T07:34:37;-2.20;99.90
23137;DHT22;11737;50.558;7.258;2023-03-01T07:37:04;-2.00;99.90
23137;DHT22;11737;50.558;7.258;2023-03-01T07:39:32;-1.90;99.90
23137;DHT22;11737;50.558;7.258;2023-03-01T07:41:59;-1.80;99.90
23137;DHT22;11737;50.558;7.258;2023-03-01T07:44:46;-1.70;99.90
23137;DHT22;11737;50.558;7.258;2023-03-01T07:47:13;-1.50;99.90
23137;DHT22;11737;50.558;7.258;2023-03-01T07:49:41;-1.40;99.90
23137;DHT22;11737;50.558;7.258;2023-03-01T07:52:10;-1.40;99.90
23137;DHT22;11737;50.558;7.258;2023-03-01T07:54:39;-1.20;99.90
23137;DHT22;11737;50.558;7.258;2023-03-01T07:57:06;-1.10;99.90
23137;DHT22;11737;50.558;7.258;2023-03-01T07:59:34;-0.90;99.90
23137;DHT22;11737;50.558;7.258;2023-03-01T08:02:01;-0.90;99.90
23137;DHT22;11737;50.558;7.258;2023-03-01T08:04:29;-0.90;99.90
23137;DHT22;11737;50.558;7.258;2023-03-01T08:06:56;-0.90;99.90
23137;DHT22;11737;50.558;7.258;2023-03-01T08:09:24;-0.90;99.90
23137;DHT22;11737;50.558;7.258;2023-03-01T08:11:52;-0.70;99.90
23137;DHT22;11737;50.558;7.258;2023-03-01T08:14:21;-0.50;99.90
23137;DHT22;11737;50.558;7.258;2023-03-01T08:16:49;-0.40;99.90
23137;DHT22;11737;50.558;7.258;2023-03-01T08:19:17;-0.30;99.90
23137;DHT22;11737;50.558;7.258;2023-03-01T08:21:45;-0.20;99.90
23137;DHT22;11737;50.558;7.258;2023-03-01T08:24:12;0.00;99.90
23137;DHT22;11737;50.558;7.258;2023-03-01T08:26:40;0.10;99.90
23137;DHT22;11737;50.558;7.258;2023-03-01T08:29:08;0.20;99.90
23137;DHT22;11737;50.558;7.258;2023-03-01T08:31:38;0.30;99.90
23137;DHT22;11737;50.558;7.258;2023-03-01T08:34:09;0.40;99.90
23137;DHT22;11737;50.558;7.258;2023-03-01T08:36:38;0.60;99.90
23137;DHT22;11737;50.558;7.258;2023-03-01T08:39:08;0.80;99.90
23137;DHT22;11737;50.558;7.258;2023-03-01T08:41:35;0.90;99.90
23137;DHT22;11737;50.558;7.258;2023-03-01T08:44:03;1.20;99.90
23137;DHT22;11737;50.558;7.258;2023-03-01T08:46:33;1.50;99.90
23137;DHT22;11737;50.558;7.258;2023-03-01T08:49:14;1.70;99.90
23137;DHT22;11737;50.558;7.258;2023-03-01T08:51:43;2.00;99.90
23137;DHT22;11737;50.558;7.258;2023-03-01T08:54:13;2.30;99.90
23137;DHT22;11737;50.558;7.258;2023-03-01T08:59:29;2.60;99.90
23137;DHT22;11737;50.558;7.258;2023-03-01T09:01:58;2.70;99.90
23137;DHT22;11737;50.558;7.258;2023-03-01T09:04:26;2.90;99.90
23137;DHT22;11737;50.558;7.258;2023-03-01T09:06:53;2.90;99.90
23137;DHT22;11737;50.558;7.258;2023-03-01T09:09:21;2.90;99.90
23137;DHT22;11737;50.558;7.258;2023-03-01T09:11:48;3.10;99.90
23137;DHT22;11737;50.558;7.258;2023-03-01T09:14:17;3.30;99.90
23137;DHT22;11737;50.558;7.258;2023-03-01T09:16:44;3.50;99.90
23137;DHT22;11737;50.558;7.258;2023-03-01T09:19:13;3.60;99.90
23137;DHT22;11737;50.558;7.258;2023-03-01T09:21:40;3.90;99.90
23137;DHT22;11737;50.558;7.258;2023-03-01T09:27:00;4.00;99.90
23137;DHT22;11737;50.558;7.258;2023-03-01T09:29:29;4.10;99.90
23137;DHT22;11737;50.558;7.258;2023-03-01T09:31:56;4.10;99.90
23137;DHT22;11737;50.558;7.258;2023-03-01T09:34:24;4.10;99.90
23137;DHT22;11737;50.558;7.258;2023-03-01T09:36:52;4.10;99.90
23137;DHT22;11737;50.558;7.258;2023-03-01T09:39:19;4.10;99.90
23137;DHT22;11737;50.558;7.258;2023-03-01T09:42:02;4.20;99.90
23137;DHT22;11737;50.558;7.258;2023-03-01T09:44:40;4.20;99.90
23137;DHT22;11737;50.558;7.258;2023-03-01T09:47:12;4.30;99.90
23137;DHT22;11737;50.558;7.258;2023-03-01T09:49:39;4.30;99.90
23137;DHT22;11737;50.558;7.258;2023-03-01T09:54:57;4.40;99.90
23137;DHT22;11737;50.558;7.258;2023-03-01T09:57:53;4.60;99.90
23137;DHT22;11737;50.558;7.258;2023-03-01T10:00:43;4.70;99.90
23137;DHT22;11737;50.558;7.258;2023-03-01T10:03:42;4.80;99.90
23137;DHT22;11737;50.558;7.258;2023-03-01T10:06:15;5.10;99.90
23137;DHT22;11737;50.558;7.258;2023-03-01T10:08:55;5.00;99.90
23137;DHT22;11737;50.558;7.258;2023-03-01T10:11:31;5.10;99.90
23137;DHT22;11737;50.558;7.258;2023-03-01T10:14:03;5.20;99.90
23137;DHT22;11737;50.558;7.258;2023-03-01T10:16:40;5.40;99.90
23137;DHT22;11737;50.558;7.258;2023-03-01T10:19:10;5.60;99.90
23137;DHT22;11737;50.558;7.258;2023-03-01T10:21:40;5.70;99.90
23137;DHT22;11737;50.558;7.258;2023-03-01T10:24:15;5.90;99.90
23137;DHT22;11737;50.558;7.258;2023-03-01T10:26:56;6.10;99.90
23137;DHT22;11737;50.558;7.258;2023-03-01T10:32:30;6.60;99.90
23137;DHT22;11737;50.558;7.258;2023-03-01T10:34:58;6.70;99.90
23137;DHT22;11737;50.558;7.258;2023-03-01T10:37:25;6.80;99.90
23137;DHT22;11737;50.558;7.258;2023-03-01T10:40:02;6.90;99.90
23137;DHT22;11737;50.558;7.258;2023-03-01T10:42:49;7.00;99.90
23137;DHT22;11737;50.558;7.258;2023-03-01T10:48:20;7.30;99.90
23137;DHT22;11737;50.558;7.258;2023-03-01T10:51:17;7.40;99.90
23137;DHT22;11737;50.558;7.258;2023-03-01T10:53:25;7.50;99.90
23137;DHT22;11737;50.558;7.258;2023-03-01T10:56:01;7.60;99.90
23137;DHT22;11737;50.558;7.258;2023-03-01T10:58:29;7.70;99.90
23137;DHT22;11737;50.558;7.258;2023-03-01T11:03:46;7.90;98.60
23137;DHT22;11737;50.558;7.258;2023-03-01T11:06:21;8.00;97.70
23137;DHT22;11737;50.558;7.258;2023-03-01T11:08:48;8.10;98.00
23137;DHT22;11737;50.558;7.258;2023-03-01T11:14:19;8.40;95.70
23137;DHT22;11737;50.558;7.258;2023-03-01T11:19:35;8.50;95.60
23137;DHT22;11737;50.558;7.258;2023-03-01T11:27:32;8.70;94.00
23137;DHT22;11737;50.558;7.258;2023-03-01T11:30:13;8.70;96.40
23137;DHT22;11737;50.558;7.258;2023-03-01T11:32:47;8.80;95.90
23137;DHT22;11737;50.558;7.258;2023-03-01T11:35:24;8.70;98.10
23137;DHT22;11737;50.558;7.258;2023-03-01T11:43:53;9.00;93.90
23137;DHT22;11737;50.558;7.258;2023-03-01T12:09:13;9.60;91.60
23137;DHT22;11737;50.558;7.258;2023-03-01T12:20:51;10.00;90.80
23137;DHT22;11737;50.558;7.258;2023-03-01T12:32:00;10.10;86.50
23137;DHT22;11737;50.558;7.258;2023-03-01T12:37:36;10.20;97.60
23137;DHT22;11737;50.558;7.258;2023-03-01T12:40:24;10.30;96.00
23137;DHT22;11737;50.558;7.258;2023-03-01T12:43:08;10.50;94.30
23137;DHT22;11737;50.558;7.258;2023-03-01T12:48:47;10.70;86.10
23137;DHT22;11737;50.558;7.258;2023-03-01T12:51:17;10.70;88.00
23137;DHT22;11737;50.558;7.258;2023-03-01T12:54:14;10.70;90.80
23137;DHT22;11737;50.558;7.258;2023-03-01T12:56:41;10.80;83.90
23137;DHT22;11737;50.558;7.258;2023-03-01T12:59:17;10.90;86.00
23137;DHT22;11737;50.558;7.258;2023-03-01T13:01:53;10.90;84.00
23137;DHT22;11737;50.558;7.258;2023-03-01T13:10:23;10.90;84.70
23137;DHT22;11737;50.558;7.258;2023-03-01T13:12:52;10.80;90.60
23137;DHT22;11737;50.558;7.258;2023-03-01T13:15:24;10.80;90.80
23137;DHT22;11737;50.558;7.258;2023-03-01T13:18:00;11.00;90.60
23137;DHT22;11737;50.558;7.258;2023-03-01T13:20:46;11.10;83.80
23137;DHT22;11737;50.558;7.258;2023-03-01T13:28:53;11.30;87.00
23137;DHT22;11737;50.558;7.258;2023-03-01T13:34:00;11.30;78.80
23137;DHT22;11737;50.558;7.258;2023-03-01T13:39:30;11.20;74.10
23137;DHT22;11737;50.558;7.258;2023-03-01T13:42:00;11.30;73.60
23137;DHT22;11737;50.558;7.258;2023-03-01T13:44:33;11.30;76.00
23137;DHT22;11737;50.558;7.258;2023-03-01T13:47:16;11.30;78.50
23137;DHT22;11737;50.558;7.258;2023-03-01T13:49:52;11.40;76.90
23137;DHT22;11737;50.558;7.258;2023-03-01T13:54:54;11.50;82.70
23137;DHT22;11737;50.558;7.258;2023-03-01T13:57:30;11.60;87.40
23137;DHT22;11737;50.558;7.258;2023-03-01T14:00:34;11.60;79.50
23137;DHT22;11737;50.558;7.258;2023-03-01T14:03:10;11.70;81.20
23137;DHT22;11737;50.558;7.258;2023-03-01T14:05:35;11.70;87.20
23137;DHT22;11737;50.558;7.258;2023-03-01T14:08:18;11.70;82.50
23137;DHT22;11737;50.558;7.258;2023-03-01T14:10:58;11.80;81.20
23137;DHT22;11737;50.558;7.258;2023-03-01T14:19:14;11.70;70.60
23137;DHT22;11737;50.558;7.258;2023-03-01T14:21:39;11.60;70.70
23137;DHT22;11737;50.558;7.258;2023-03-01T14:24:18;11.60;69.30
23137;DHT22;11737;50.558;7.258;2023-03-01T14:26:46;11.50;70.10
23137;DHT22;11737;50.558;7.258;2023-03-01T14:29:33;11.50;76.20
23137;DHT22;11737;50.558;7.258;2023-03-01T14:31:53;11.60;70.20
23137;DHT22;11737;50.558;7.258;2023-03-01T14:34:23;11.70;70.00
23137;DHT22;11737;50.558;7.258;2023-03-01T14:36:51;11.70;67.90
23137;DHT22;11737;50.558;7.258;2023-03-01T14:42:07;11.80;67.20
23137;DHT22;11737;50.558;7.258;2023-03-01T14:44:35;11.70;66.60
23137;DHT22;11737;50.558;7.258;2023-03-01T14:47:04;11.70;78.30
23137;DHT22;11737;50.558;7.258;2023-03-01T14:49:34;11.80;69.30
23137;DHT22;11737;50.558;7.258;2023-03-01T14:52:08;11.80;66.20
23137;DHT22;11737;50.558;7.258;2023-03-01T14:54:50;11.80;67.40
23137;DHT22;11737;50.558;7.258;2023-03-01T14:57:24;11.80;72.80
23137;DHT22;11737;50.558;7.258;2023-03-01T14:59:55;11.80;75.40
23137;DHT22;11737;50.558;7.258;2023-03-01T15:02:25;11.90;71.10
23137;DHT22;11737;50.558;7.258;2023-03-01T15:04:55;11.90;68.80
23137;DHT22;11737;50.558;7.258;2023-03-01T15:07:26;12.00;75.80
23137;DHT22;11737;50.558;7.258;2023-03-01T15:09:54;12.00;70.50
23137;DHT22;11737;50.558;7.258;2023-03-01T15:12:37;11.90;62.60
23137;DHT22;11737;50.558;7.258;2023-03-01T15:18:05;12.10;71.50
23137;DHT22;11737;50.558;7.258;2023-03-01T15:20:30;12.50;69.30
23137;DHT22;11737;50.558;7.258;2023-03-01T15:23:02;12.70;70.90
23137;DHT22;11737;50.558;7.258;2023-03-01T15:25:32;12.80;61.80
23137;DHT22;11737;50.558;7.258;2023-03-01T15:28:01;12.90;59.90
23137;DHT22;11737;50.558;7.258;2023-03-01T15:35:58;13.30;62.30
23137;DHT22;11737;50.558;7.258;2023-03-01T15:38:56;13.50;59.80
23137;DHT22;11737;50.558;7.258;2023-03-01T15:41:29;13.70;65.30
23137;DHT22;11737;50.558;7.258;2023-03-01T15:44:14;14.00;65.20
23137;DHT22;11737;50.558;7.258;2023-03-01T15:46:33;14.50;69.00
23137;DHT22;11737;50.558;7.258;2023-03-01T15:49:19;14.80;73.50
23137;DHT22;11737;50.558;7.258;2023-03-01T15:51:36;15.20;70.60
23137;DHT22;11737;50.558;7.258;2023-03-01T15:54:18;15.30;69.10
23137;DHT22;11737;50.558;7.258;2023-03-01T15:56:46;15.30;68.30
23137;DHT22;11737;50.558;7.258;2023-03-01T15:59:14;15.60;68.60
23137;DHT22;11737;50.558;7.258;2023-03-01T16:01:42;16.00;67.60
23137;DHT22;11737;50.558;7.258;2023-03-01T16:04:13;16.40;69.60
23137;DHT22;11737;50.558;7.258;2023-03-01T16:06:43;16.70;62.40
23137;DHT22;11737;50.558;7.258;2023-03-01T16:09:10;17.00;62.90
23137;DHT22;11737;50.558;7.258;2023-03-01T16:11:39;17.10;63.30
23137;DHT22;11737;50.558;7.258;2023-03-01T16:14:09;16.90;58.40
23137;DHT22;11737;50.558;7.258;2023-03-01T16:16:37;16.70;59.80
23137;DHT22;11737;50.558;7.258;2023-03-01T16:19:04;16.70;60.20
23137;DHT22;11737;50.558;7.258;2023-03-01T16:21:32;16.60;65.50
23137;DHT22;11737;50.558;7.258;2023-03-01T16:23:59;16.40;57.40
23137;DHT22;11737;50.558;7.258;2023-03-01T16:26:27;15.90;57.60
23137;DHT22;11737;50.558;7.258;2023-03-01T16:28:56;15.30;55.80
23137;DHT22;11737;50.558;7.258;2023-03-01T16:31:24;14.60;58.40
23137;DHT22;11737;50.558;7.258;2023-03-01T16:33:56;14.10;58.10
23137;DHT22;11737;50.558;7.258;2023-03-01T16:36:25;13.60;56.70
23137;DHT22;11737;50.558;7.258;2023-03-01T16:38:55;13.00;58.60
23137;DHT22;11737;50.558;7.258;2023-03-01T16:41:24;12.60;65.00
23137;DHT22;11737;50.558;7.258;2023-03-01T16:43:52;12.40;64.40
23137;DHT22;11737;50.558;7.258;2023-03-01T16:46:25;12.10;63.70
23137;DHT22;11737;50.558;7.258;2023-03-01T16:48:55;11.90;71.40
23137;DHT22;11737;50.558;7.258;2023-03-01T16:51:23;11.70;64.50
23137;DHT22;11737;50.558;7.258;2023-03-01T16:53:51;11.50;70.60
23137;DHT22;11737;50.558;7.258;2023-03-01T16:56:19;11.30;69.50
23137;DHT22;11737;50.558;7.258;2023-03-01T16:58:47;11.10;68.90
23137;DHT22;11737;50.558;7.258;2023-03-01T17:01:34;10.90;70.50
23137;DHT22;11737;50.558;7.258;2023-03-01T17:04:04;10.70;68.30
23137;DHT22;11737;50.558;7.258;2023-03-01T17:06:32;10.60;68.30
23137;DHT22;11737;50.558;7.258;2023-03-01T17:08:59;10.50;64.30
23137;DHT22;11737;50.558;7.258;2023-03-01T17:11:27;10.30;65.80
23137;DHT22;11737;50.558;7.258;2023-03-01T17:13:54;10.30;66.00
23137;DHT22;11737;50.558;7.258;2023-03-01T17:16:22;10.10;66.20
23137;DHT22;11737;50.558;7.258;2023-03-01T17:18:50;10.00;66.20
23137;DHT22;11737;50.558;7.258;2023-03-01T17:21:17;9.90;68.30
23137;DHT22;11737;50.558;7.258;2023-03-01T17:23:46;9.70;71.90
23137;DHT22;11737;50.558;7.258;2023-03-01T17:26:16;9.60;71.10
23137;DHT22;11737;50.558;7.258;2023-03-01T17:28:43;9.50;71.40
23137;DHT22;11737;50.558;7.258;2023-03-01T17:31:12;9.40;73.00
23137;DHT22;11737;50.558;7.258;2023-03-01T17:33:40;9.20;75.00
23137;DHT22;11737;50.558;7.258;2023-03-01T17:36:07;9.10;75.90
23137;DHT22;11737;50.558;7.258;2023-03-01T17:38:35;9.00;80.40
23137;DHT22;11737;50.558;7.258;2023-03-01T17:41:03;8.90;80.80
23137;DHT22;11737;50.558;7.258;2023-03-01T17:43:31;8.80;80.70
23137;DHT22;11737;50.558;7.258;2023-03-01T17:46:00;8.70;82.00
23137;DHT22;11737;50.558;7.258;2023-03-01T17:48:28;8.60;80.80
23137;DHT22;11737;50.558;7.258;2023-03-01T17:50:55;8.60;80.50
23137;DHT22;11737;50.558;7.258;2023-03-01T17:53:23;8.60;79.70
23137;DHT22;11737;50.558;7.258;2023-03-01T17:55:58;8.60;78.70
23137;DHT22;11737;50.558;7.258;2023-03-01T17:58:21;8.60;78.90
23137;DHT22;11737;50.558;7.258;2023-03-01T18:00:49;8.70;77.70
23137;DHT22;11737;50.558;7.258;2023-03-01T18:03:17;8.70;77.40
23137;DHT22;11737;50.558;7.258;2023-03-01T18:05:44;8.70;77.20
23137;DHT22;11737;50.558;7.258;2023-03-01T18:08:12;8.70;78.40
23137;DHT22;11737;50.558;7.258;2023-03-01T18:10:40;8.70;77.60
23137;DHT22;11737;50.558;7.258;2023-03-01T18:13:08;8.60;77.40